sensor_id;sensor_type;location;lat;lon;timestamp;P1;durP1;ratioP1;P2;durP2;ratioP2
55756;SDS011;41676;44.610;44.078;2024-02-14T00:03:39;37.53;;;18.50;;
55756;SDS011;41676;44.610;44.078;2024-02-14T00:08:40;30.85;;;17.23;;
55756;SDS011;41676;44.610;44.078;2024-02-14T00:13:40;40.97;;;16.75;;
55756;SDS011;41676;44.610;44.078;2024-02-14T00:18:41;21.40;;;14.57;;
55756;SDS011;41676;44.610;44.078;2024-02-14T00:23:42;25.83;;;15.32;;
55756;SDS011;41676;44.610;44.078;2024-02-14T00:28:43;21.88;;;15.32;;
55756;SDS011;41676;44.610;44.078;2024-02-14T00:33:44;20.90;;;14.35;;
55756;SDS011;41676;44.610;44.078;2024-02-14T00:38:46;22.83;;;14.70;;
55756;SDS011;41676;44.610;44.078;2024-02-14T00:43:47;21.48;;;15.07;;
55756;SDS011;41676;44.610;44.078;2024-02-14T00:48:48;26.05;;;15.32;;
55756;SDS011;41676;44.610;44.078;2024-02-14T00:53:48;22.27;;;14.60;;
55756;SDS011;41676;44.610;44.078;2024-02-14T00:58:49;21.80;;;14.82;;
55756;SDS011;41676;44.610;44.078;2024-02-14T01:03:50;18.77;;;12.65;;
55756;SDS011;41676;44.610;44.078;2024-02-14T01:08:51;19.20;;;14.15;;
55756;SDS011;41676;44.610;44.078;2024-02-14T01:13:52;23.20;;;14.25;;
55756;SDS011;41676;44.610;44.078;2024-02-14T01:18:52;21.40;;;15.25;;
55756;SDS011;41676;44.610;44.078;2024-02-14T01:23:53;22.92;;;14.02;;
55756;SDS011;41676;44.610;44.078;2024-02-14T01:28:54;17.35;;;12.75;;
55756;SDS011;41676;44.610;44.078;2024-02-14T01:33:55;16.00;;;11.82;;
55756;SDS011;41676;44.610;44.078;2024-02-14T01:38:57;19.40;;;12.63;;
55756;SDS011;41676;44.610;44.078;2024-02-14T01:43:58;17.70;;;12.40;;
55756;SDS011;41676;44.610;44.078;2024-02-14T01:49:00;18.88;;;13.82;;
55756;SDS011;41676;44.610;44.078;2024-02-14T01:54:00;26.00;;;13.95;;
55756;SDS011;41676;44.610;44.078;2024-02-14T01:59:03;22.58;;;13.45;;
55756;SDS011;41676;44.610;44.078;2024-02-14T02:04:05;29.08;;;13.23;;
55756;SDS011;41676;44.610;44.078;2024-02-14T02:09:07;37.33;;;12.90;;
55756;SDS011;41676;44.610;44.078;2024-02-14T02:14:08;60.50;;;14.30;;
55756;SDS011;41676;44.610;44.078;2024-02-14T02:19:09;29.00;;;15.85;;
55756;SDS011;41676;44.610;44.078;2024-02-14T02:24:10;44.78;;;18.15;;
55756;SDS011;41676;44.610;44.078;2024-02-14T02:29:10;19.73;;;14.13;;
55756;SDS011;41676;44.610;44.078;2024-02-14T02:34:11;42.17;;;17.83;;
55756;SDS011;41676;44.610;44.078;2024-02-14T02:39:12;33.50;;;13.82;;
55756;SDS011;41676;44.610;44.078;2024-02-14T02:44:14;31.25;;;13.63;;
55756;SDS011;41676;44.610;44.078;2024-02-14T02:49:15;37.70;;;11.95;;
55756;SDS011;41676;44.610;44.078;2024-02-14T02:54:15;31.25;;;13.07;;
55756;SDS011;41676;44.610;44.078;2024-02-14T02:59:16;24.23;;;13.57;;
55756;SDS011;41676;44.610;44.078;2024-02-14T03:04:17;24.52;;;12.32;;
55756;SDS011;41676;44.610;44.078;2024-02-14T03:09:19;33.90;;;11.13;;
55756;SDS011;41676;44.610;44.078;2024-02-14T03:14:19;32.60;;;16.88;;
55756;SDS011;41676;44.610;44.078;2024-02-14T03:19:20;30.67;;;11.85;;
55756;SDS011;41676;44.610;44.078;2024-02-14T03:24:22;41.33;;;10.85;;
55756;SDS011;41676;44.610;44.078;2024-02-14T03:29:27;30.08;;;16.23;;
55756;SDS011;41676;44.610;44.078;2024-02-14T03:34:28;23.25;;;12.75;;
55756;SDS011;41676;44.610;44.078;2024-02-14T03:39:30;17.70;;;11.15;;
55756;SDS011;41676;44.610;44.078;2024-02-14T03:44:31;38.33;;;12.95;;
55756;SDS011;41676;44.610;44.078;2024-02-14T03:49:32;28.77;;;11.65;;
55756;SDS011;41676;44.610;44.078;2024-02-14T03:54:32;24.42;;;10.30;;
55756;SDS011;41676;44.610;44.078;2024-02-14T03:59:37;14.95;;;9.40;;
55756;SDS011;41676;44.610;44.078;2024-02-14T04:04:41;23.58;;;11.52;;
55756;SDS011;41676;44.610;44.078;2024-02-14T04:09:42;18.98;;;12.90;;
55756;SDS011;41676;44.610;44.078;2024-02-14T04:14:43;15.32;;;10.43;;
55756;SDS011;41676;44.610;44.078;2024-02-14T04:19:44;13.05;;;10.02;;
55756;SDS011;41676;44.610;44.078;2024-02-14T04:24:44;14.15;;;9.88;;
55756;SDS011;41676;44.610;44.078;2024-02-14T04:29:45;24.05;;;10.82;;
55756;SDS011;41676;44.610;44.078;2024-02-14T04:34:47;25.15;;;10.98;;
55756;SDS011;41676;44.610;44.078;2024-02-14T04:39:49;30.02;;;11.93;;
55756;SDS011;41676;44.610;44.078;2024-02-14T04:44:49;19.67;;;11.25;;
55756;SDS011;41676;44.610;44.078;2024-02-14T04:49:50;31.17;;;10.85;;
55756;SDS011;41676;44.610;44.078;2024-02-14T04:54:51;19.55;;;9.85;;
55756;SDS011;41676;44.610;44.078;2024-02-14T04:59:52;28.67;;;11.20;;
55756;SDS011;41676;44.610;44.078;2024-02-14T05:04:53;16.30;;;9.68;;
55756;SDS011;41676;44.610;44.078;2024-02-14T05:09:55;34.28;;;10.35;;
55756;SDS011;41676;44.610;44.078;2024-02-14T05:14:56;22.27;;;10.27;;
55756;SDS011;41676;44.610;44.078;2024-02-14T05:19:57;12.20;;;8.70;;
55756;SDS011;41676;44.610;44.078;2024-02-14T05:24:58;15.43;;;9.23;;
55756;SDS011;41676;44.610;44.078;2024-02-14T05:29:59;12.70;;;8.55;;
55756;SDS011;41676;44.610;44.078;2024-02-14T05:35:01;15.27;;;8.07;;
55756;SDS011;41676;44.610;44.078;2024-02-14T05:40:02;15.35;;;8.95;;
55756;SDS011;41676;44.610;44.078;2024-02-14T05:45:06;17.80;;;9.35;;
55756;SDS011;41676;44.610;44.078;2024-02-14T05:50:10;21.17;;;9.93;;
55756;SDS011;41676;44.610;44.078;2024-02-14T05:55:11;21.48;;;10.70;;
55756;SDS011;41676;44.610;44.078;2024-02-14T06:00:12;24.50;;;11.50;;
55756;SDS011;41676;44.610;44.078;2024-02-14T06:05:13;95.55;;;20.15;;
55756;SDS011;41676;44.610;44.078;2024-02-14T06:10:14;51.80;;;13.48;;
55756;SDS011;41676;44.610;44.078;2024-02-14T06:15:15;74.13;;;12.50;;
55756;SDS011;41676;44.610;44.078;2024-02-14T06:20:16;33.70;;;13.52;;
55756;SDS011;41676;44.610;44.078;2024-02-14T06:25:17;44.47;;;13.38;;
55756;SDS011;41676;44.610;44.078;2024-02-14T06:30:18;160.85;;;84.30;;
55756;SDS011;41676;44.610;44.078;2024-02-14T06:35:19;194.43;;;86.07;;
55756;SDS011;41676;44.610;44.078;2024-02-14T06:40:21;116.15;;;67.78;;
55756;SDS011;41676;44.610;44.078;2024-02-14T06:45:22;36.35;;;22.40;;
55756;SDS011;41676;44.610;44.078;2024-02-14T06:50:23;213.27;;;132.27;;
55756;SDS011;41676;44.610;44.078;2024-02-14T06:55:28;161.85;;;124.70;;
55756;SDS011;41676;44.610;44.078;2024-02-14T07:00:32;40.67;;;31.45;;
55756;SDS011;41676;44.610;44.078;2024-02-14T07:05:33;20.25;;;15.48;;
55756;SDS011;41676;44.610;44.078;2024-02-14T07:10:34;28.98;;;18.05;;
55756;SDS011;41676;44.610;44.078;2024-02-14T07:15:35;20.15;;;13.15;;
55756;SDS011;41676;44.610;44.078;2024-02-14T07:20:36;17.30;;;12.38;;
55756;SDS011;41676;44.610;44.078;2024-02-14T07:25:37;13.43;;;10.25;;
55756;SDS011;41676;44.610;44.078;2024-02-14T07:30:37;14.35;;;11.35;;
55756;SDS011;41676;44.610;44.078;2024-02-14T07:35:38;28.98;;;20.35;;
55756;SDS011;41676;44.610;44.078;2024-02-14T07:40:39;34.70;;;27.85;;
55756;SDS011;41676;44.610;44.078;2024-02-14T07:45:40;19.40;;;14.98;;
55756;SDS011;41676;44.610;44.078;2024-02-14T07:50:40;71.80;;;46.00;;
55756;SDS011;41676;44.610;44.078;2024-02-14T07:55:41;64.82;;;43.42;;
55756;SDS011;41676;44.610;44.078;2024-02-14T08:00:42;21.02;;;16.10;;
55756;SDS011;41676;44.610;44.078;2024-02-14T08:05:43;15.30;;;12.93;;
55756;SDS011;41676;44.610;44.078;2024-02-14T08:10:43;32.88;;;17.27;;
55756;SDS011;41676;44.610;44.078;2024-02-14T08:15:44;107.93;;;64.63;;
55756;SDS011;41676;44.610;44.078;2024-02-14T08:20:46;42.30;;;24.88;;
55756;SDS011;41676;44.610;44.078;2024-02-14T08:25:46;30.60;;;13.40;;
55756;SDS011;41676;44.610;44.078;2024-02-14T08:30:48;20.15;;;12.13;;
55756;SDS011;41676;44.610;44.078;2024-02-14T08:35:49;27.20;;;13.52;;
55756;SDS011;41676;44.610;44.078;2024-02-14T08:40:50;17.67;;;11.45;;
55756;SDS011;41676;44.610;44.078;2024-02-14T08:45:51;17.02;;;13.00;;
55756;SDS011;41676;44.610;44.078;2024-02-14T08:50:52;11.15;;;10.05;;
55756;SDS011;41676;44.610;44.078;2024-02-14T08:55:53;12.48;;;10.00;;
55756;SDS011;41676;44.610;44.078;2024-02-14T09:00:54;13.60;;;10.10;;
55756;SDS011;41676;44.610;44.078;2024-02-14T09:05:55;20.15;;;13.00;;
55756;SDS011;41676;44.610;44.078;2024-02-14T09:10:57;13.85;;;9.98;;
55756;SDS011;41676;44.610;44.078;2024-02-14T09:15:59;12.50;;;9.88;;
55756;SDS011;41676;44.610;44.078;2024-02-14T09:21:00;19.58;;;11.13;;
55756;SDS011;41676;44.610;44.078;2024-02-14T09:26:01;15.00;;;11.90;;
55756;SDS011;41676;44.610;44.078;2024-02-14T09:31:02;17.23;;;12.13;;
55756;SDS011;41676;44.610;44.078;2024-02-14T09:36:04;18.90;;;12.57;;
55756;SDS011;41676;44.610;44.078;2024-02-14T09:41:10;17.00;;;12.57;;
55756;SDS011;41676;44.610;44.078;2024-02-14T09:46:16;20.67;;;15.80;;
55756;SDS011;41676;44.610;44.078;2024-02-14T09:51:17;21.85;;;15.05;;
55756;SDS011;41676;44.610;44.078;2024-02-14T09:56:18;20.83;;;13.73;;
55756;SDS011;41676;44.610;44.078;2024-02-14T10:01:23;16.75;;;12.48;;
55756;SDS011;41676;44.610;44.078;2024-02-14T10:06:25;14.02;;;11.20;;
55756;SDS011;41676;44.610;44.078;2024-02-14T10:11:25;19.08;;;11.75;;
55756;SDS011;41676;44.610;44.078;2024-02-14T10:16:27;16.08;;;12.85;;
55756;SDS011;41676;44.610;44.078;2024-02-14T10:21:30;14.85;;;12.13;;
55756;SDS011;41676;44.610;44.078;2024-02-14T10:26:39;16.02;;;12.90;;
55756;SDS011;41676;44.610;44.078;2024-02-14T10:31:40;34.10;;;25.67;;
55756;SDS011;41676;44.610;44.078;2024-02-14T10:36:42;15.10;;;11.40;;
55756;SDS011;41676;44.610;44.078;2024-02-14T10:41:44;15.77;;;12.50;;
55756;SDS011;41676;44.610;44.078;2024-02-14T10:46:45;13.02;;;11.38;;
55756;SDS011;41676;44.610;44.078;2024-02-14T10:51:47;18.10;;;13.27;;
55756;SDS011;41676;44.610;44.078;2024-02-14T10:56:49;19.73;;;13.15;;
55756;SDS011;41676;44.610;44.078;2024-02-14T11:01:52;18.50;;;13.73;;
55756;SDS011;41676;44.610;44.078;2024-02-14T11:06:53;22.30;;;13.45;;
55756;SDS011;41676;44.610;44.078;2024-02-14T11:12:03;16.87;;;14.27;;
55756;SDS011;41676;44.610;44.078;2024-02-14T11:17:09;17.60;;;14.15;;
55756;SDS011;41676;44.610;44.078;2024-02-14T11:22:13;16.85;;;12.98;;
55756;SDS011;41676;44.610;44.078;2024-02-14T11:27:18;20.35;;;13.07;;
55756;SDS011;41676;44.610;44.078;2024-02-14T11:32:22;14.43;;;12.20;;
55756;SDS011;41676;44.610;44.078;2024-02-14T11:37:29;16.30;;;12.30;;
55756;SDS011;41676;44.610;44.078;2024-02-14T11:42:31;16.75;;;13.15;;
55756;SDS011;41676;44.610;44.078;2024-02-14T11:47:32;14.30;;;11.90;;
55756;SDS011;41676;44.610;44.078;2024-02-14T11:52:33;13.32;;;11.63;;
55756;SDS011;41676;44.610;44.078;2024-02-14T11:57:35;15.55;;;11.00;;
55756;SDS011;41676;44.610;44.078;2024-02-14T12:02:36;20.08;;;14.73;;
55756;SDS011;41676;44.610;44.078;2024-02-14T12:07:37;18.88;;;11.73;;
55756;SDS011;41676;44.610;44.078;2024-02-14T12:12:38;15.57;;;10.18;;
55756;SDS011;41676;44.610;44.078;2024-02-14T12:17:39;14.02;;;11.02;;
55756;SDS011;41676;44.610;44.078;2024-02-14T12:22:40;14.48;;;10.07;;
55756;SDS011;41676;44.610;44.078;2024-02-14T12:27:41;16.30;;;10.40;;
55756;SDS011;41676;44.610;44.078;2024-02-14T12:32:42;16.17;;;10.30;;
55756;SDS011;41676;44.610;44.078;2024-02-14T12:37:42;19.95;;;10.52;;
55756;SDS011;41676;44.610;44.078;2024-02-14T12:42:43;27.60;;;12.88;;
55756;SDS011;41676;44.610;44.078;2024-02-14T12:47:44;20.27;;;11.30;;
55756;SDS011;41676;44.610;44.078;2024-02-14T12:52:45;21.58;;;11.32;;
55756;SDS011;41676;44.610;44.078;2024-02-14T12:57:46;17.67;;;12.27;;
55756;SDS011;41676;44.610;44.078;2024-02-14T13:02:48;19.77;;;12.88;;
55756;SDS011;41676;44.610;44.078;2024-02-14T13:07:49;23.60;;;12.30;;
55756;SDS011;41676;44.610;44.078;2024-02-14T13:12:50;30.38;;;17.48;;
55756;SDS011;41676;44.610;44.078;2024-02-14T13:17:51;19.58;;;13.57;;
55756;SDS011;41676;44.610;44.078;2024-02-14T13:22:52;19.92;;;14.27;;
55756;SDS011;41676;44.610;44.078;2024-02-14T13:27:53;18.63;;;13.07;;
55756;SDS011;41676;44.610;44.078;2024-02-14T13:32:55;19.02;;;13.95;;
55756;SDS011;41676;44.610;44.078;2024-02-14T13:37:56;19.27;;;13.00;;
55756;SDS011;41676;44.610;44.078;2024-02-14T13:42:57;21.35;;;13.82;;
55756;SDS011;41676;44.610;44.078;2024-02-14T13:48:02;26.10;;;18.17;;
55756;SDS011;41676;44.610;44.078;2024-02-14T13:53:08;23.25;;;15.63;;
55756;SDS011;41676;44.610;44.078;2024-02-14T13:58:09;22.67;;;13.70;;
55756;SDS011;41676;44.610;44.078;2024-02-14T14:03:15;20.48;;;13.98;;
55756;SDS011;41676;44.610;44.078;2024-02-14T14:08:16;19.63;;;13.88;;
55756;SDS011;41676;44.610;44.078;2024-02-14T14:13:17;22.88;;;16.60;;
55756;SDS011;41676;44.610;44.078;2024-02-14T14:18:17;22.88;;;16.23;;
55756;SDS011;41676;44.610;44.078;2024-02-14T14:23:18;30.00;;;18.55;;
55756;SDS011;41676;44.610;44.078;2024-02-14T14:28:19;40.45;;;18.98;;
55756;SDS011;41676;44.610;44.078;2024-02-14T14:33:24;24.92;;;17.23;;
55756;SDS011;41676;44.610;44.078;2024-02-14T14:38:25;40.50;;;25.23;;
55756;SDS011;41676;44.610;44.078;2024-02-14T14:43:26;43.17;;;27.75;;
55756;SDS011;41676;44.610;44.078;2024-02-14T14:48:28;42.47;;;27.15;;
55756;SDS011;41676;44.610;44.078;2024-02-14T14:53:28;43.67;;;23.70;;
55756;SDS011;41676;44.610;44.078;2024-02-14T14:58:30;76.10;;;29.50;;
55756;SDS011;41676;44.610;44.078;2024-02-14T15:03:34;37.40;;;22.55;;
55756;SDS011;41676;44.610;44.078;2024-02-14T15:08:35;50.58;;;23.00;;
55756;SDS011;41676;44.610;44.078;2024-02-14T15:13:35;41.40;;;24.55;;
55756;SDS011;41676;44.610;44.078;2024-02-14T15:18:36;49.28;;;26.42;;
55756;SDS011;41676;44.610;44.078;2024-02-14T15:23:37;47.33;;;27.85;;
55756;SDS011;41676;44.610;44.078;2024-02-14T15:28:38;61.55;;;27.02;;
55756;SDS011;41676;44.610;44.078;2024-02-14T15:33:44;66.35;;;31.92;;
55756;SDS011;41676;44.610;44.078;2024-02-14T15:38:46;64.00;;;29.35;;
55756;SDS011;41676;44.610;44.078;2024-02-14T15:43:46;71.82;;;29.45;;
55756;SDS011;41676;44.610;44.078;2024-02-14T15:48:47;49.33;;;25.92;;
55756;SDS011;41676;44.610;44.078;2024-02-14T15:53:48;48.17;;;28.27;;
55756;SDS011;41676;44.610;44.078;2024-02-14T15:58:49;96.90;;;72.28;;
55756;SDS011;41676;44.610;44.078;2024-02-14T16:03:50;45.92;;;34.15;;
55756;SDS011;41676;44.610;44.078;2024-02-14T16:08:50;46.90;;;34.75;;
55756;SDS011;41676;44.610;44.078;2024-02-14T16:13:54;39.47;;;32.07;;
55756;SDS011;41676;44.610;44.078;2024-02-14T16:18:55;33.33;;;23.13;;
55756;SDS011;41676;44.610;44.078;2024-02-14T16:23:58;29.20;;;19.53;;
55756;SDS011;41676;44.610;44.078;2024-02-14T16:28:59;40.50;;;27.48;;
55756;SDS011;41676;44.610;44.078;2024-02-14T16:34:00;28.63;;;19.05;;
55756;SDS011;41676;44.610;44.078;2024-02-14T16:39:01;20.17;;;15.32;;
55756;SDS011;41676;44.610;44.078;2024-02-14T16:44:02;40.08;;;28.13;;
55756;SDS011;41676;44.610;44.078;2024-02-14T16:49:03;41.47;;;31.65;;
55756;SDS011;41676;44.610;44.078;2024-02-14T16:54:04;20.70;;;14.27;;
55756;SDS011;41676;44.610;44.078;2024-02-14T16:59:05;78.20;;;50.47;;
55756;SDS011;41676;44.610;44.078;2024-02-14T17:04:06;27.80;;;19.52;;
55756;SDS011;41676;44.610;44.078;2024-02-14T17:09:07;30.85;;;19.90;;
55756;SDS011;41676;44.610;44.078;2024-02-14T17:14:07;25.45;;;14.18;;
55756;SDS011;41676;44.610;44.078;2024-02-14T17:19:10;21.13;;;12.73;;
55756;SDS011;41676;44.610;44.078;2024-02-14T17:24:11;19.35;;;10.32;;
55756;SDS011;41676;44.610;44.078;2024-02-14T17:29:11;14.20;;;9.32;;
55756;SDS011;41676;44.610;44.078;2024-02-14T17:34:12;22.70;;;14.80;;
55756;SDS011;41676;44.610;44.078;2024-02-14T17:39:13;38.85;;;28.90;;
55756;SDS011;41676;44.610;44.078;2024-02-14T17:44:14;19.80;;;12.93;;
55756;SDS011;41676;44.610;44.078;2024-02-14T17:49:15;18.23;;;11.73;;
55756;SDS011;41676;44.610;44.078;2024-02-14T17:54:16;31.95;;;21.08;;
55756;SDS011;41676;44.610;44.078;2024-02-14T17:59:18;23.75;;;15.18;;
55756;SDS011;41676;44.610;44.078;2024-02-14T18:04:18;19.92;;;12.88;;
55756;SDS011;41676;44.610;44.078;2024-02-14T18:09:20;26.55;;;16.25;;
55756;SDS011;41676;44.610;44.078;2024-02-14T18:14:20;28.35;;;17.45;;
55756;SDS011;41676;44.610;44.078;2024-02-14T18:19:21;26.08;;;18.02;;
55756;SDS011;41676;44.610;44.078;2024-02-14T18:24:22;24.25;;;18.85;;
55756;SDS011;41676;44.610;44.078;2024-02-14T18:29:23;46.97;;;33.80;;
55756;SDS011;41676;44.610;44.078;2024-02-14T18:34:24;43.20;;;32.55;;
55756;SDS011;41676;44.610;44.078;2024-02-14T18:39:25;36.30;;;23.65;;
55756;SDS011;41676;44.610;44.078;2024-02-14T18:44:25;40.60;;;29.63;;
55756;SDS011;41676;44.610;44.078;2024-02-14T18:49:26;36.90;;;22.27;;
55756;SDS011;41676;44.610;44.078;2024-02-14T18:54:27;30.30;;;18.45;;
55756;SDS011;41676;44.610;44.078;2024-02-14T18:59:30;27.00;;;17.05;;
55756;SDS011;41676;44.610;44.078;2024-02-14T19:04:34;37.05;;;22.33;;
55756;SDS011;41676;44.610;44.078;2024-02-14T19:14:35;37.28;;;21.23;;
55756;SDS011;41676;44.610;44.078;2024-02-14T19:19:38;35.38;;;21.77;;
55756;SDS011;41676;44.610;44.078;2024-02-14T19:24:39;37.38;;;21.65;;
55756;SDS011;41676;44.610;44.078;2024-02-14T19:29:39;36.35;;;20.90;;
55756;SDS011;41676;44.610;44.078;2024-02-14T19:34:40;36.90;;;21.45;;
55756;SDS011;41676;44.610;44.078;2024-02-14T19:39:41;35.90;;;22.83;;
55756;SDS011;41676;44.610;44.078;2024-02-14T19:44:42;39.17;;;22.83;;
55756;SDS011;41676;44.610;44.078;2024-02-14T19:49:43;56.63;;;22.00;;
55756;SDS011;41676;44.610;44.078;2024-02-14T19:54:43;37.42;;;18.00;;
55756;SDS011;41676;44.610;44.078;2024-02-14T19:59:44;34.95;;;20.67;;
55756;SDS011;41676;44.610;44.078;2024-02-14T20:04:45;32.92;;;18.73;;
55756;SDS011;41676;44.610;44.078;2024-02-14T20:09:46;40.63;;;24.40;;
55756;SDS011;41676;44.610;44.078;2024-02-14T20:14:46;36.40;;;18.95;;
55756;SDS011;41676;44.610;44.078;2024-02-14T20:19:47;58.65;;;18.92;;
55756;SDS011;41676;44.610;44.078;2024-02-14T20:24:48;45.17;;;22.02;;
55756;SDS011;41676;44.610;44.078;2024-02-14T20:29:49;50.20;;;23.40;;
55756;SDS011;41676;44.610;44.078;2024-02-14T20:34:49;53.90;;;27.55;;
55756;SDS011;41676;44.610;44.078;2024-02-14T20:39:50;61.80;;;32.17;;
55756;SDS011;41676;44.610;44.078;2024-02-14T20:44:51;55.15;;;26.42;;
55756;SDS011;41676;44.610;44.078;2024-02-14T20:49:52;50.17;;;26.73;;
55756;SDS011;41676;44.610;44.078;2024-02-14T20:54:56;60.83;;;25.00;;
55756;SDS011;41676;44.610;44.078;2024-02-14T20:59:57;48.22;;;24.00;;
55756;SDS011;41676;44.610;44.078;2024-02-14T21:04:58;64.13;;;24.92;;
55756;SDS011;41676;44.610;44.078;2024-02-14T21:10:00;43.63;;;20.48;;
55756;SDS011;41676;44.610;44.078;2024-02-14T21:15:01;55.75;;;24.83;;
55756;SDS011;41676;44.610;44.078;2024-02-14T21:20:02;58.03;;;21.95;;
55756;SDS011;41676;44.610;44.078;2024-02-14T21:25:03;54.83;;;24.33;;
55756;SDS011;41676;44.610;44.078;2024-02-14T21:30:05;48.70;;;20.73;;
55756;SDS011;41676;44.610;44.078;2024-02-14T21:35:06;59.55;;;24.05;;
55756;SDS011;41676;44.610;44.078;2024-02-14T21:40:07;64.75;;;24.83;;
55756;SDS011;41676;44.610;44.078;2024-02-14T21:45:11;113.57;;;25.38;;
55756;SDS011;41676;44.610;44.078;2024-02-14T21:50:11;94.65;;;23.10;;
55756;SDS011;41676;44.610;44.078;2024-02-14T21:55:12;35.97;;;16.55;;
55756;SDS011;41676;44.610;44.078;2024-02-14T22:00:13;63.60;;;20.52;;
55756;SDS011;41676;44.610;44.078;2024-02-14T22:05:14;53.60;;;20.80;;
55756;SDS011;41676;44.610;44.078;2024-02-14T22:10:15;58.25;;;19.52;;
55756;SDS011;41676;44.610;44.078;2024-02-14T22:15:16;63.67;;;23.27;;
55756;SDS011;41676;44.610;44.078;2024-02-14T22:20:17;71.10;;;22.05;;
55756;SDS011;41676;44.610;44.078;2024-02-14T22:25:20;63.78;;;24.75;;
55756;SDS011;41676;44.610;44.078;2024-02-14T22:30:21;70.05;;;23.73;;
55756;SDS011;41676;44.610;44.078;2024-02-14T22:35:22;70.47;;;22.17;;
55756;SDS011;41676;44.610;44.078;2024-02-14T22:40:22;68.00;;;23.52;;
55756;SDS011;41676;44.610;44.078;2024-02-14T22:45:23;42.95;;;17.42;;
55756;SDS011;41676;44.610;44.078;2024-02-14T22:50:24;49.35;;;21.30;;
55756;SDS011;41676;44.610;44.078;2024-02-14T22:55:25;47.00;;;21.20;;
55756;SDS011;41676;44.610;44.078;2024-02-14T23:00:29;43.07;;;20.90;;
55756;SDS011;41676;44.610;44.078;2024-02-14T23:05:30;80.80;;;23.42;;
55756;SDS011;41676;44.610;44.078;2024-02-14T23:10:31;50.47;;;21.75;;
55756;SDS011;41676;44.610;44.078;2024-02-14T23:15:32;43.33;;;20.00;;
55756;SDS011;41676;44.610;44.078;2024-02-14T23:20:33;46.35;;;22.38;;
55756;SDS011;41676;44.610;44.078;2024-02-14T23:25:36;46.35;;;21.27;;
55756;SDS011;41676;44.610;44.078;2024-02-14T23:30:37;48.85;;;20.38;;
55756;SDS011;41676;44.610;44.078;2024-02-14T23:35:40;75.90;;;21.27;;
55756;SDS011;41676;44.610;44.078;2024-02-14T23:40:42;47.90;;;20.02;;
55756;SDS011;41676;44.610;44.078;2024-02-14T23:45:42;42.90;;;20.75;;
55756;SDS011;41676;44.610;44.078;2024-02-14T23:50:44;62.03;;;21.92;;
55756;SDS011;41676;44.610;44.078;2024-02-14T23:55:49;39.40;;;20.15;;
